sensor_id;sensor_type;location;lat;lon;timestamp;P1;P2;P0
46885;PMS5003;32622;48.202;11.326;2022-10-16T00:00:23;9;8;
46885;PMS5003;32622;48.202;11.326;2022-10-16T00:02:26;9;8;
46885;PMS5003;32622;48.202;11.326;2022-10-16T00:04:30;9;8;
46885;PMS5003;32622;48.202;11.326;2022-10-16T00:06:33;9;8;
46885;PMS5003;32622;48.202;11.326;2022-10-16T00:08:37;9;8;
46885;PMS5003;32622;48.202;11.326;2022-10-16T00:10:41;6;6;
46885;PMS5003;32622;48.202;11.326;2022-10-16T00:12:44;6;6;
46885;PMS5003;32622;48.202;11.326;2022-10-16T00:14:48;6;6;
46885;PMS5003;32622;48.202;11.326;2022-10-16T00:16:51;6;6;
46885;PMS5003;32622;48.202;11.326;2022-10-16T00:18:55;6;6;
46885;PMS5003;32622;48.202;11.326;2022-10-16T00:21:01;6;6;
46885;PMS5003;32622;48.202;11.326;2022-10-16T00:23:06;6;6;
46885;PMS5003;32622;48.202;11.326;2022-10-16T00:25:09;6;6;
46885;PMS5003;32622;48.202;11.326;2022-10-16T00:27:12;6;6;
46885;PMS5003;32622;48.202;11.326;2022-10-16T00:29:15;6;6;
46885;PMS5003;32622;48.202;11.326;2022-10-16T00:31:19;6;6;
46885;PMS5003;32622;48.202;11.326;2022-10-16T00:33:24;6;6;
46885;PMS5003;32622;48.202;11.326;2022-10-16T00:35:27;6;6;
46885;PMS5003;32622;48.202;11.326;2022-10-16T00:37:30;6;6;
46885;PMS5003;32622;48.202;11.326;2022-10-16T00:39:34;7;7;
46885;PMS5003;32622;48.202;11.326;2022-10-16T00:41:37;7;5;
46885;PMS5003;32622;48.202;11.326;2022-10-16T00:43:41;7;5;
46885;PMS5003;32622;48.202;11.326;2022-10-16T00:45:47;7;5;
46885;PMS5003;32622;48.202;11.326;2022-10-16T00:47:50;7;5;
46885;PMS5003;32622;48.202;11.326;2022-10-16T00:49:58;7;5;
46885;PMS5003;32622;48.202;11.326;2022-10-16T00:52:03;8;5;
46885;PMS5003;32622;48.202;11.326;2022-10-16T00:54:09;8;5;
46885;PMS5003;32622;48.202;11.326;2022-10-16T00:56:15;8;5;
46885;PMS5003;32622;48.202;11.326;2022-10-16T00:58:19;7;6;
46885;PMS5003;32622;48.202;11.326;2022-10-16T01:00:25;7;6;
46885;PMS5003;32622;48.202;11.326;2022-10-16T01:02:29;7;6;
46885;PMS5003;32622;48.202;11.326;2022-10-16T01:04:33;6;6;
46885;PMS5003;32622;48.202;11.326;2022-10-16T01:06:40;6;6;
46885;PMS5003;32622;48.202;11.326;2022-10-16T01:08:56;6;6;
46885;PMS5003;32622;48.202;11.326;2022-10-16T01:11:08;6;6;
46885;PMS5003;32622;48.202;11.326;2022-10-16T01:13:21;6;6;
46885;PMS5003;32622;48.202;11.326;2022-10-16T01:15:29;9;9;
46885;PMS5003;32622;48.202;11.326;2022-10-16T01:17:38;9;9;
46885;PMS5003;32622;48.202;11.326;2022-10-16T01:19:51;9;9;
46885;PMS5003;32622;48.202;11.326;2022-10-16T01:22:05;9;9;
46885;PMS5003;32622;48.202;11.326;2022-10-16T01:24:14;9;9;
46885;PMS5003;32622;48.202;11.326;2022-10-16T01:26:31;9;9;
46885;PMS5003;32622;48.202;11.326;2022-10-16T01:28:48;9;9;
46885;PMS5003;32622;48.202;11.326;2022-10-16T01:30:58;9;9;
46885;PMS5003;32622;48.202;11.326;2022-10-16T01:33:03;9;9;
46885;PMS5003;32622;48.202;11.326;2022-10-16T01:35:14;9;9;
46885;PMS5003;32622;48.202;11.326;2022-10-16T01:37:25;8;8;
46885;PMS5003;32622;48.202;11.326;2022-10-16T01:39:36;8;8;
46885;PMS5003;32622;48.202;11.326;2022-10-16T01:41:44;8;8;
46885;PMS5003;32622;48.202;11.326;2022-10-16T01:43:53;7;7;
46885;PMS5003;32622;48.202;11.326;2022-10-16T01:46:03;7;7;
46885;PMS5003;32622;48.202;11.326;2022-10-16T01:48:09;7;7;
46885;PMS5003;32622;48.202;11.326;2022-10-16T01:50:16;8;6;
46885;PMS5003;32622;48.202;11.326;2022-10-16T01:52:22;8;6;
46885;PMS5003;32622;48.202;11.326;2022-10-16T01:54:29;8;6;
46885;PMS5003;32622;48.202;11.326;2022-10-16T01:56:36;9;7;
46885;PMS5003;32622;48.202;11.326;2022-10-16T01:58:42;9;7;
46885;PMS5003;32622;48.202;11.326;2022-10-16T02:00:49;9;7;
46885;PMS5003;32622;48.202;11.326;2022-10-16T02:02:54;7;6;
46885;PMS5003;32622;48.202;11.326;2022-10-16T02:05:01;7;6;
46885;PMS5003;32622;48.202;11.326;2022-10-16T02:07:13;7;6;
46885;PMS5003;32622;48.202;11.326;2022-10-16T02:09:17;6;6;
46885;PMS5003;32622;48.202;11.326;2022-10-16T02:11:21;6;6;
46885;PMS5003;32622;48.202;11.326;2022-10-16T02:13:26;6;6;
46885;PMS5003;32622;48.202;11.326;2022-10-16T02:15:33;7;7;
46885;PMS5003;32622;48.202;11.326;2022-10-16T02:17:36;8;8;
46885;PMS5003;32622;48.202;11.326;2022-10-16T02:19:39;8;8;
46885;PMS5003;32622;48.202;11.326;2022-10-16T02:21:46;7;7;
46885;PMS5003;32622;48.202;11.326;2022-10-16T02:23:54;8;8;
46885;PMS5003;32622;48.202;11.326;2022-10-16T02:26:03;7;7;
46885;PMS5003;32622;48.202;11.326;2022-10-16T02:28:11;7;7;
46885;PMS5003;32622;48.202;11.326;2022-10-16T02:30:19;7;6;
46885;PMS5003;32622;48.202;11.326;2022-10-16T02:32:27;7;6;
46885;PMS5003;32622;48.202;11.326;2022-10-16T02:34:34;7;6;
46885;PMS5003;32622;48.202;11.326;2022-10-16T02:36:39;7;6;
46885;PMS5003;32622;48.202;11.326;2022-10-16T02:38:44;7;6;
46885;PMS5003;32622;48.202;11.326;2022-10-16T02:40:47;8;7;
46885;PMS5003;32622;48.202;11.326;2022-10-16T02:42:52;7;6;
46885;PMS5003;32622;48.202;11.326;2022-10-16T02:44:56;7;6;
46885;PMS5003;32622;48.202;11.326;2022-10-16T02:47:00;7;6;
46885;PMS5003;32622;48.202;11.326;2022-10-16T02:49:03;5;4;
46885;PMS5003;32622;48.202;11.326;2022-10-16T02:51:07;5;4;
46885;PMS5003;32622;48.202;11.326;2022-10-16T02:53:10;5;4;
46885;PMS5003;32622;48.202;11.326;2022-10-16T02:55:14;6;5;
46885;PMS5003;32622;48.202;11.326;2022-10-16T02:57:18;5;5;
46885;PMS5003;32622;48.202;11.326;2022-10-16T02:59:21;5;5;
46885;PMS5003;32622;48.202;11.326;2022-10-16T03:01:24;7;7;
46885;PMS5003;32622;48.202;11.326;2022-10-16T03:03:28;7;7;
46885;PMS5003;32622;48.202;11.326;2022-10-16T03:05:32;7;7;
46885;PMS5003;32622;48.202;11.326;2022-10-16T03:07:35;7;7;
46885;PMS5003;32622;48.202;11.326;2022-10-16T03:09:38;7;7;
46885;PMS5003;32622;48.202;11.326;2022-10-16T03:11:42;7;7;
46885;PMS5003;32622;48.202;11.326;2022-10-16T03:13:45;7;7;
46885;PMS5003;32622;48.202;11.326;2022-10-16T03:15:49;7;7;
46885;PMS5003;32622;48.202;11.326;2022-10-16T03:17:52;7;7;
46885;PMS5003;32622;48.202;11.326;2022-10-16T03:19:55;6;6;
46885;PMS5003;32622;48.202;11.326;2022-10-16T03:21:58;6;6;
46885;PMS5003;32622;48.202;11.326;2022-10-16T03:24:02;6;6;
46885;PMS5003;32622;48.202;11.326;2022-10-16T03:26:06;7;7;
46885;PMS5003;32622;48.202;11.326;2022-10-16T03:28:09;7;7;
46885;PMS5003;32622;48.202;11.326;2022-10-16T03:30:12;5;5;
46885;PMS5003;32622;48.202;11.326;2022-10-16T03:32:59;5;5;
46885;PMS5003;32622;48.202;11.326;2022-10-16T03:35:03;6;6;
46885;PMS5003;32622;48.202;11.326;2022-10-16T03:37:08;6;6;
46885;PMS5003;32622;48.202;11.326;2022-10-16T03:39:11;6;6;
46885;PMS5003;32622;48.202;11.326;2022-10-16T03:41:16;6;6;
46885;PMS5003;32622;48.202;11.326;2022-10-16T03:43:43;5;5;
46885;PMS5003;32622;48.202;11.326;2022-10-16T03:45:47;5;5;
46885;PMS5003;32622;48.202;11.326;2022-10-16T03:47:51;5;5;
46885;PMS5003;32622;48.202;11.326;2022-10-16T03:49:55;5;5;
46885;PMS5003;32622;48.202;11.326;2022-10-16T03:51:58;5;5;
46885;PMS5003;32622;48.202;11.326;2022-10-16T03:54:01;5;5;
46885;PMS5003;32622;48.202;11.326;2022-10-16T03:56:05;5;5;
46885;PMS5003;32622;48.202;11.326;2022-10-16T03:58:09;6;6;
46885;PMS5003;32622;48.202;11.326;2022-10-16T04:00:12;6;6;
46885;PMS5003;32622;48.202;11.326;2022-10-16T04:02:16;6;6;
46885;PMS5003;32622;48.202;11.326;2022-10-16T04:04:19;8;7;
46885;PMS5003;32622;48.202;11.326;2022-10-16T04:06:22;8;7;
46885;PMS5003;32622;48.202;11.326;2022-10-16T04:08:26;8;7;
46885;PMS5003;32622;48.202;11.326;2022-10-16T04:10:29;8;7;
46885;PMS5003;32622;48.202;11.326;2022-10-16T04:12:32;8;7;
46885;PMS5003;32622;48.202;11.326;2022-10-16T04:14:35;8;7;
46885;PMS5003;32622;48.202;11.326;2022-10-16T04:16:38;9;8;
46885;PMS5003;32622;48.202;11.326;2022-10-16T04:18:41;9;8;
46885;PMS5003;32622;48.202;11.326;2022-10-16T04:20:44;9;8;
46885;PMS5003;32622;48.202;11.326;2022-10-16T04:22:48;9;8;
46885;PMS5003;32622;48.202;11.326;2022-10-16T04:24:51;9;8;
46885;PMS5003;32622;48.202;11.326;2022-10-16T04:26:54;9;8;
46885;PMS5003;32622;48.202;11.326;2022-10-16T04:28:57;8;8;
46885;PMS5003;32622;48.202;11.326;2022-10-16T04:31:00;8;8;
46885;PMS5003;32622;48.202;11.326;2022-10-16T04:33:07;8;8;
46885;PMS5003;32622;48.202;11.326;2022-10-16T04:35:11;8;8;
46885;PMS5003;32622;48.202;11.326;2022-10-16T04:37:14;8;6;
46885;PMS5003;32622;48.202;11.326;2022-10-16T04:39:17;8;6;
46885;PMS5003;32622;48.202;11.326;2022-10-16T04:41:20;8;7;
46885;PMS5003;32622;48.202;11.326;2022-10-16T04:43:24;8;7;
46885;PMS5003;32622;48.202;11.326;2022-10-16T04:45:27;8;7;
46885;PMS5003;32622;48.202;11.326;2022-10-16T04:47:31;8;7;
46885;PMS5003;32622;48.202;11.326;2022-10-16T04:49:34;8;7;
46885;PMS5003;32622;48.202;11.326;2022-10-16T04:51:36;8;7;
46885;PMS5003;32622;48.202;11.326;2022-10-16T04:53:40;8;7;
46885;PMS5003;32622;48.202;11.326;2022-10-16T04:55:43;8;7;
46885;PMS5003;32622;48.202;11.326;2022-10-16T04:57:47;8;7;
46885;PMS5003;32622;48.202;11.326;2022-10-16T04:59:50;7;7;
46885;PMS5003;32622;48.202;11.326;2022-10-16T05:01:53;7;7;
46885;PMS5003;32622;48.202;11.326;2022-10-16T05:03:56;7;7;
46885;PMS5003;32622;48.202;11.326;2022-10-16T05:05:59;7;7;
46885;PMS5003;32622;48.202;11.326;2022-10-16T05:08:02;7;7;
46885;PMS5003;32622;48.202;11.326;2022-10-16T05:10:06;5;5;
46885;PMS5003;32622;48.202;11.326;2022-10-16T05:12:09;5;5;
46885;PMS5003;32622;48.202;11.326;2022-10-16T05:14:12;5;5;
46885;PMS5003;32622;48.202;11.326;2022-10-16T05:16:15;5;5;
46885;PMS5003;32622;48.202;11.326;2022-10-16T05:18:18;6;6;
46885;PMS5003;32622;48.202;11.326;2022-10-16T05:20:21;6;6;
46885;PMS5003;32622;48.202;11.326;2022-10-16T05:22:24;6;6;
46885;PMS5003;32622;48.202;11.326;2022-10-16T05:24:27;5;5;
46885;PMS5003;32622;48.202;11.326;2022-10-16T05:26:30;5;5;
46885;PMS5003;32622;48.202;11.326;2022-10-16T05:28:34;5;5;
46885;PMS5003;32622;48.202;11.326;2022-10-16T05:30:37;5;5;
46885;PMS5003;32622;48.202;11.326;2022-10-16T05:32:40;5;5;
46885;PMS5003;32622;48.202;11.326;2022-10-16T05:34:44;5;5;
46885;PMS5003;32622;48.202;11.326;2022-10-16T05:36:47;5;5;
46885;PMS5003;32622;48.202;11.326;2022-10-16T05:38:50;5;5;
46885;PMS5003;32622;48.202;11.326;2022-10-16T05:40:54;5;5;
46885;PMS5003;32622;48.202;11.326;2022-10-16T05:42:57;5;5;
46885;PMS5003;32622;48.202;11.326;2022-10-16T05:45:00;5;5;
46885;PMS5003;32622;48.202;11.326;2022-10-16T05:47:03;5;5;
46885;PMS5003;32622;48.202;11.326;2022-10-16T05:49:06;5;5;
46885;PMS5003;32622;48.202;11.326;2022-10-16T05:51:10;5;5;
46885;PMS5003;32622;48.202;11.326;2022-10-16T05:53:14;5;5;
46885;PMS5003;32622;48.202;11.326;2022-10-16T05:55:17;5;5;
46885;PMS5003;32622;48.202;11.326;2022-10-16T05:57:20;5;5;
46885;PMS5003;32622;48.202;11.326;2022-10-16T05:59:23;5;5;
46885;PMS5003;32622;48.202;11.326;2022-10-16T06:01:26;5;5;
46885;PMS5003;32622;48.202;11.326;2022-10-16T06:03:29;5;5;
46885;PMS5003;32622;48.202;11.326;2022-10-16T06:05:33;5;5;
46885;PMS5003;32622;48.202;11.326;2022-10-16T06:07:36;5;5;
46885;PMS5003;32622;48.202;11.326;2022-10-16T06:09:38;5;5;
46885;PMS5003;32622;48.202;11.326;2022-10-16T06:11:41;5;5;
46885;PMS5003;32622;48.202;11.326;2022-10-16T06:13:44;5;5;
46885;PMS5003;32622;48.202;11.326;2022-10-16T06:15:51;5;5;
46885;PMS5003;32622;48.202;11.326;2022-10-16T06:17:54;5;5;
46885;PMS5003;32622;48.202;11.326;2022-10-16T06:19:57;5;5;
46885;PMS5003;32622;48.202;11.326;2022-10-16T06:22:01;5;5;
46885;PMS5003;32622;48.202;11.326;2022-10-16T06:24:04;5;5;
46885;PMS5003;32622;48.202;11.326;2022-10-16T06:26:07;6;6;
46885;PMS5003;32622;48.202;11.326;2022-10-16T06:28:13;6;6;
46885;PMS5003;32622;48.202;11.326;2022-10-16T06:30:16;6;6;
46885;PMS5003;32622;48.202;11.326;2022-10-16T06:32:20;6;6;
46885;PMS5003;32622;48.202;11.326;2022-10-16T06:34:23;6;6;
46885;PMS5003;32622;48.202;11.326;2022-10-16T06:36:26;5;5;
46885;PMS5003;32622;48.202;11.326;2022-10-16T06:38:29;5;5;
46885;PMS5003;32622;48.202;11.326;2022-10-16T06:40:33;5;5;
46885;PMS5003;32622;48.202;11.326;2022-10-16T06:42:41;5;5;
46885;PMS5003;32622;48.202;11.326;2022-10-16T06:44:56;7;6;
46885;PMS5003;32622;48.202;11.326;2022-10-16T06:47:07;8;8;
46885;PMS5003;32622;48.202;11.326;2022-10-16T06:51:43;7;6;
46885;PMS5003;32622;48.202;11.326;2022-10-16T06:53:48;7;6;
46885;PMS5003;32622;48.202;11.326;2022-10-16T08:43:28;14;14;
46885;PMS5003;32622;48.202;11.326;2022-10-16T08:45:43;14;14;
46885;PMS5003;32622;48.202;11.326;2022-10-16T08:48:06;14;14;
46885;PMS5003;32622;48.202;11.326;2022-10-16T08:50:19;14;14;
46885;PMS5003;32622;48.202;11.326;2022-10-16T08:52:28;15;15;
46885;PMS5003;32622;48.202;11.326;2022-10-16T08:54:34;15;15;
46885;PMS5003;32622;48.202;11.326;2022-10-16T08:56:43;15;15;
46885;PMS5003;32622;48.202;11.326;2022-10-16T08:58:45;14;14;
46885;PMS5003;32622;48.202;11.326;2022-10-16T09:00:51;14;14;
46885;PMS5003;32622;48.202;11.326;2022-10-16T09:02:59;14;14;
46885;PMS5003;32622;48.202;11.326;2022-10-16T09:05:15;14;14;
46885;PMS5003;32622;48.202;11.326;2022-10-16T09:07:27;14;14;
46885;PMS5003;32622;48.202;11.326;2022-10-16T09:09:42;14;14;
46885;PMS5003;32622;48.202;11.326;2022-10-16T09:11:57;14;14;
46885;PMS5003;32622;48.202;11.326;2022-10-16T09:14:06;14;14;
46885;PMS5003;32622;48.202;11.326;2022-10-16T09:16:19;14;14;
46885;PMS5003;32622;48.202;11.326;2022-10-16T09:18:27;13;13;
46885;PMS5003;32622;48.202;11.326;2022-10-16T09:20:39;13;13;
46885;PMS5003;32622;48.202;11.326;2022-10-16T09:22:51;13;13;
46885;PMS5003;32622;48.202;11.326;2022-10-16T09:24:59;13;13;
46885;PMS5003;32622;48.202;11.326;2022-10-16T09:27:12;13;13;
46885;PMS5003;32622;48.202;11.326;2022-10-16T09:29:18;13;13;
46885;PMS5003;32622;48.202;11.326;2022-10-16T09:31:22;13;13;
46885;PMS5003;32622;48.202;11.326;2022-10-16T09:33:28;13;13;
46885;PMS5003;32622;48.202;11.326;2022-10-16T09:35:36;11;11;
46885;PMS5003;32622;48.202;11.326;2022-10-16T09:37:41;11;11;
46885;PMS5003;32622;48.202;11.326;2022-10-16T09:39:47;11;11;
46885;PMS5003;32622;48.202;11.326;2022-10-16T09:41:52;11;11;
46885;PMS5003;32622;48.202;11.326;2022-10-16T09:43:57;12;12;
46885;PMS5003;32622;48.202;11.326;2022-10-16T09:46:03;12;12;
46885;PMS5003;32622;48.202;11.326;2022-10-16T09:48:10;13;13;
46885;PMS5003;32622;48.202;11.326;2022-10-16T09:50:20;13;13;
46885;PMS5003;32622;48.202;11.326;2022-10-16T09:52:26;12;12;
46885;PMS5003;32622;48.202;11.326;2022-10-16T09:54:30;12;12;
46885;PMS5003;32622;48.202;11.326;2022-10-16T09:56:34;12;12;
46885;PMS5003;32622;48.202;11.326;2022-10-16T09:58:37;12;12;
46885;PMS5003;32622;48.202;11.326;2022-10-16T10:00:48;12;12;
46885;PMS5003;32622;48.202;11.326;2022-10-16T10:02:54;12;12;
46885;PMS5003;32622;48.202;11.326;2022-10-16T10:04:57;13;13;
46885;PMS5003;32622;48.202;11.326;2022-10-16T10:07:00;13;13;
46885;PMS5003;32622;48.202;11.326;2022-10-16T10:09:05;13;13;
46885;PMS5003;32622;48.202;11.326;2022-10-16T10:11:18;13;13;
46885;PMS5003;32622;48.202;11.326;2022-10-16T10:13:38;13;13;
46885;PMS5003;32622;48.202;11.326;2022-10-16T10:15:41;13;13;
46885;PMS5003;32622;48.202;11.326;2022-10-16T10:17:45;13;13;
46885;PMS5003;32622;48.202;11.326;2022-10-16T10:19:51;13;13;
46885;PMS5003;32622;48.202;11.326;2022-10-16T10:21:55;13;13;
46885;PMS5003;32622;48.202;11.326;2022-10-16T10:23:58;13;13;
46885;PMS5003;32622;48.202;11.326;2022-10-16T10:26:02;18;18;
46885;PMS5003;32622;48.202;11.326;2022-10-16T10:28:30;17;17;
46885;PMS5003;32622;48.202;11.326;2022-10-16T10:30:50;17;17;
46885;PMS5003;32622;48.202;11.326;2022-10-16T10:33:07;17;17;
46885;PMS5003;32622;48.202;11.326;2022-10-16T10:35:21;16;16;
46885;PMS5003;32622;48.202;11.326;2022-10-16T10:37:34;16;16;
46885;PMS5003;32622;48.202;11.326;2022-10-16T10:39:51;16;16;
46885;PMS5003;32622;48.202;11.326;2022-10-16T10:42:05;15;15;
46885;PMS5003;32622;48.202;11.326;2022-10-16T10:44:21;16;16;
46885;PMS5003;32622;48.202;11.326;2022-10-16T10:46:35;16;16;
46885;PMS5003;32622;48.202;11.326;2022-10-16T10:48:48;17;15;
46885;PMS5003;32622;48.202;11.326;2022-10-16T10:51:01;17;15;
46885;PMS5003;32622;48.202;11.326;2022-10-16T10:53:10;17;15;
46885;PMS5003;32622;48.202;11.326;2022-10-16T10:55:23;17;16;
46885;PMS5003;32622;48.202;11.326;2022-10-16T10:57:37;17;16;
46885;PMS5003;32622;48.202;11.326;2022-10-16T10:59:54;17;16;
46885;PMS5003;32622;48.202;11.326;2022-10-16T11:02:07;18;17;
46885;PMS5003;32622;48.202;11.326;2022-10-16T11:04:23;18;17;
46885;PMS5003;32622;48.202;11.326;2022-10-16T11:06:35;18;17;
46885;PMS5003;32622;48.202;11.326;2022-10-16T11:08:43;18;17;
46885;PMS5003;32622;48.202;11.326;2022-10-16T11:10:52;18;17;
46885;PMS5003;32622;48.202;11.326;2022-10-16T11:13:00;17;16;
46885;PMS5003;32622;48.202;11.326;2022-10-16T11:15:18;17;16;
46885;PMS5003;32622;48.202;11.326;2022-10-16T11:17:27;17;16;
46885;PMS5003;32622;48.202;11.326;2022-10-16T11:19:35;18;16;
46885;PMS5003;32622;48.202;11.326;2022-10-16T11:21:44;19;17;
46885;PMS5003;32622;48.202;11.326;2022-10-16T11:23:55;19;17;
46885;PMS5003;32622;48.202;11.326;2022-10-16T11:26:03;21;16;
46885;PMS5003;32622;48.202;11.326;2022-10-16T11:28:13;21;16;
46885;PMS5003;32622;48.202;11.326;2022-10-16T11:30:20;21;16;
46885;PMS5003;32622;48.202;11.326;2022-10-16T11:32:27;21;16;
46885;PMS5003;32622;48.202;11.326;2022-10-16T11:34:36;21;16;
46885;PMS5003;32622;48.202;11.326;2022-10-16T11:36:47;17;16;
46885;PMS5003;32622;48.202;11.326;2022-10-16T11:38:57;17;16;
46885;PMS5003;32622;48.202;11.326;2022-10-16T11:41:08;17;16;
46885;PMS5003;32622;48.202;11.326;2022-10-16T11:43:17;17;15;
46885;PMS5003;32622;48.202;11.326;2022-10-16T11:45:27;17;15;
46885;PMS5003;32622;48.202;11.326;2022-10-16T11:47:40;17;15;
46885;PMS5003;32622;48.202;11.326;2022-10-16T11:49:46;17;15;
46885;PMS5003;32622;48.202;11.326;2022-10-16T11:51:55;17;15;
46885;PMS5003;32622;48.202;11.326;2022-10-16T11:54:16;17;15;
46885;PMS5003;32622;48.202;11.326;2022-10-16T11:56:24;18;16;
46885;PMS5003;32622;48.202;11.326;2022-10-16T11:58:29;18;16;
46885;PMS5003;32622;48.202;11.326;2022-10-16T12:00:37;18;16;
46885;PMS5003;32622;48.202;11.326;2022-10-16T12:02:47;17;16;
46885;PMS5003;32622;48.202;11.326;2022-10-16T12:04:59;17;16;
46885;PMS5003;32622;48.202;11.326;2022-10-16T12:07:14;17;16;
46885;PMS5003;32622;48.202;11.326;2022-10-16T12:09:22;18;16;
46885;PMS5003;32622;48.202;11.326;2022-10-16T12:11:33;18;16;
46885;PMS5003;32622;48.202;11.326;2022-10-16T12:13:39;18;16;
46885;PMS5003;32622;48.202;11.326;2022-10-16T12:15:43;18;16;
46885;PMS5003;32622;48.202;11.326;2022-10-16T12:17:46;18;16;
46885;PMS5003;32622;48.202;11.326;2022-10-16T12:19:57;18;16;
46885;PMS5003;32622;48.202;11.326;2022-10-16T12:22:01;17;16;
46885;PMS5003;32622;48.202;11.326;2022-10-16T12:24:05;17;16;
46885;PMS5003;32622;48.202;11.326;2022-10-16T12:26:25;17;16;
46885;PMS5003;32622;48.202;11.326;2022-10-16T12:28:29;16;14;
46885;PMS5003;32622;48.202;11.326;2022-10-16T12:30:35;16;14;
46885;PMS5003;32622;48.202;11.326;2022-10-16T12:32:39;16;14;
46885;PMS5003;32622;48.202;11.326;2022-10-16T12:34:42;14;14;
46885;PMS5003;32622;48.202;11.326;2022-10-16T12:36:46;14;14;
46885;PMS5003;32622;48.202;11.326;2022-10-16T12:38:50;14;14;
46885;PMS5003;32622;48.202;11.326;2022-10-16T12:40:56;15;14;
46885;PMS5003;32622;48.202;11.326;2022-10-16T12:43:11;15;14;
46885;PMS5003;32622;48.202;11.326;2022-10-16T12:45:28;15;14;
46885;PMS5003;32622;48.202;11.326;2022-10-16T12:47:36;15;13;
46885;PMS5003;32622;48.202;11.326;2022-10-16T12:49:49;15;13;
46885;PMS5003;32622;48.202;11.326;2022-10-16T12:51:54;15;13;
46885;PMS5003;32622;48.202;11.326;2022-10-16T12:53:58;15;14;
46885;PMS5003;32622;48.202;11.326;2022-10-16T12:56:03;15;14;
46885;PMS5003;32622;48.202;11.326;2022-10-16T12:58:16;15;14;
46885;PMS5003;32622;48.202;11.326;2022-10-16T13:00:28;16;13;
46885;PMS5003;32622;48.202;11.326;2022-10-16T13:02:46;16;13;
46885;PMS5003;32622;48.202;11.326;2022-10-16T13:05:09;16;13;
46885;PMS5003;32622;48.202;11.326;2022-10-16T13:07:28;16;14;
46885;PMS5003;32622;48.202;11.326;2022-10-16T13:09:45;16;14;
46885;PMS5003;32622;48.202;11.326;2022-10-16T13:12:04;16;14;
46885;PMS5003;32622;48.202;11.326;2022-10-16T13:14:22;16;13;
46885;PMS5003;32622;48.202;11.326;2022-10-16T13:16:38;16;13;
46885;PMS5003;32622;48.202;11.326;2022-10-16T13:18:55;16;13;
46885;PMS5003;32622;48.202;11.326;2022-10-16T13:21:12;17;14;
46885;PMS5003;32622;48.202;11.326;2022-10-16T13:23:29;17;14;
46885;PMS5003;32622;48.202;11.326;2022-10-16T13:25:40;17;14;
46885;PMS5003;32622;48.202;11.326;2022-10-16T13:27:59;17;14;
46885;PMS5003;32622;48.202;11.326;2022-10-16T13:30:10;17;14;
46885;PMS5003;32622;48.202;11.326;2022-10-16T13:32:17;17;14;
46885;PMS5003;32622;48.202;11.326;2022-10-16T13:34:23;17;15;
46885;PMS5003;32622;48.202;11.326;2022-10-16T13:36:27;17;15;
46885;PMS5003;32622;48.202;11.326;2022-10-16T13:38:33;17;15;
46885;PMS5003;32622;48.202;11.326;2022-10-16T13:40:47;18;15;
46885;PMS5003;32622;48.202;11.326;2022-10-16T13:42:52;18;15;
46885;PMS5003;32622;48.202;11.326;2022-10-16T13:44:56;18;15;
46885;PMS5003;32622;48.202;11.326;2022-10-16T13:46:59;15;14;
46885;PMS5003;32622;48.202;11.326;2022-10-16T13:49:04;15;14;
46885;PMS5003;32622;48.202;11.326;2022-10-16T13:51:12;15;14;
46885;PMS5003;32622;48.202;11.326;2022-10-16T13:53:16;15;14;
46885;PMS5003;32622;48.202;11.326;2022-10-16T13:55:19;16;15;
46885;PMS5003;32622;48.202;11.326;2022-10-16T13:57:25;16;15;
46885;PMS5003;32622;48.202;11.326;2022-10-16T13:59:32;16;15;
46885;PMS5003;32622;48.202;11.326;2022-10-16T14:01:40;16;15;
46885;PMS5003;32622;48.202;11.326;2022-10-16T14:03:45;16;15;
46885;PMS5003;32622;48.202;11.326;2022-10-16T14:05:49;14;14;
46885;PMS5003;32622;48.202;11.326;2022-10-16T14:07:54;14;14;
46885;PMS5003;32622;48.202;11.326;2022-10-16T14:09:59;14;14;
46885;PMS5003;32622;48.202;11.326;2022-10-16T14:12:07;14;14;
46885;PMS5003;32622;48.202;11.326;2022-10-16T14:14:13;14;14;
46885;PMS5003;32622;48.202;11.326;2022-10-16T14:16:18;13;13;
46885;PMS5003;32622;48.202;11.326;2022-10-16T14:18:23;15;14;
46885;PMS5003;32622;48.202;11.326;2022-10-16T14:20:30;15;14;
46885;PMS5003;32622;48.202;11.326;2022-10-16T14:22:36;15;14;
46885;PMS5003;32622;48.202;11.326;2022-10-16T14:24:40;16;15;
46885;PMS5003;32622;48.202;11.326;2022-10-16T14:26:43;16;15;
46885;PMS5003;32622;48.202;11.326;2022-10-16T14:28:47;16;15;
46885;PMS5003;32622;48.202;11.326;2022-10-16T14:30:52;15;14;
46885;PMS5003;32622;48.202;11.326;2022-10-16T14:32:57;15;14;
46885;PMS5003;32622;48.202;11.326;2022-10-16T14:35:02;15;14;
46885;PMS5003;32622;48.202;11.326;2022-10-16T14:37:06;15;14;
46885;PMS5003;32622;48.202;11.326;2022-10-16T14:39:17;16;15;
46885;PMS5003;32622;48.202;11.326;2022-10-16T14:41:22;16;15;
46885;PMS5003;32622;48.202;11.326;2022-10-16T14:43:29;16;15;
46885;PMS5003;32622;48.202;11.326;2022-10-16T14:45:34;15;14;
46885;PMS5003;32622;48.202;11.326;2022-10-16T14:47:37;15;14;
46885;PMS5003;32622;48.202;11.326;2022-10-16T14:49:51;15;14;
46885;PMS5003;32622;48.202;11.326;2022-10-16T14:51:55;15;14;
46885;PMS5003;32622;48.202;11.326;2022-10-16T14:54:00;15;14;
46885;PMS5003;32622;48.202;11.326;2022-10-16T14:56:05;15;14;
46885;PMS5003;32622;48.202;11.326;2022-10-16T14:58:10;15;14;
46885;PMS5003;32622;48.202;11.326;2022-10-16T15:00:18;15;14;
46885;PMS5003;32622;48.202;11.326;2022-10-16T15:02:27;15;14;
46885;PMS5003;32622;48.202;11.326;2022-10-16T15:04:32;15;14;
46885;PMS5003;32622;48.202;11.326;2022-10-16T15:06:35;16;15;
46885;PMS5003;32622;48.202;11.326;2022-10-16T15:08:39;16;15;
46885;PMS5003;32622;48.202;11.326;2022-10-16T15:10:43;16;15;
46885;PMS5003;32622;48.202;11.326;2022-10-16T15:12:47;16;15;
46885;PMS5003;32622;48.202;11.326;2022-10-16T15:14:50;14;13;
46885;PMS5003;32622;48.202;11.326;2022-10-16T15:16:53;14;13;
46885;PMS5003;32622;48.202;11.326;2022-10-16T15:18:56;14;13;
46885;PMS5003;32622;48.202;11.326;2022-10-16T15:20:59;14;14;
46885;PMS5003;32622;48.202;11.326;2022-10-16T15:23:03;14;14;
46885;PMS5003;32622;48.202;11.326;2022-10-16T15:25:09;14;14;
46885;PMS5003;32622;48.202;11.326;2022-10-16T15:27:29;15;15;
46885;PMS5003;32622;48.202;11.326;2022-10-16T15:29:33;15;15;
46885;PMS5003;32622;48.202;11.326;2022-10-16T15:31:35;15;15;
46885;PMS5003;32622;48.202;11.326;2022-10-16T15:33:38;15;15;
46885;PMS5003;32622;48.202;11.326;2022-10-16T15:35:41;15;15;
46885;PMS5003;32622;48.202;11.326;2022-10-16T15:37:44;15;15;
46885;PMS5003;32622;48.202;11.326;2022-10-16T15:39:49;14;14;
46885;PMS5003;32622;48.202;11.326;2022-10-16T15:41:52;14;14;
46885;PMS5003;32622;48.202;11.326;2022-10-16T15:43:55;14;14;
46885;PMS5003;32622;48.202;11.326;2022-10-16T15:46:02;15;15;
46885;PMS5003;32622;48.202;11.326;2022-10-16T15:48:08;15;15;
46885;PMS5003;32622;48.202;11.326;2022-10-16T15:50:13;15;15;